sensor_id;sensor_type;location;lat;lon;timestamp;pressure;altitude;pressure_sealevel;temperature;humidity
8573;BME280;4324;42.012;24.872;2023-03-18T00:01:01;99463.06;;;7.69;61.22
8573;BME280;4324;42.012;24.872;2023-03-18T00:03:28;99460.28;;;7.70;61.57
8573;BME280;4324;42.012;24.872;2023-03-18T00:06:06;99451.97;;;7.65;61.58
8573;BME280;4324;42.012;24.872;2023-03-18T00:08:34;99446.69;;;7.65;61.44
8573;BME280;4324;42.012;24.872;2023-03-18T00:11:02;99456.41;;;7.74;61.71
8573;BME280;4324;42.012;24.872;2023-03-18T00:13:30;99465.03;;;7.76;61.76
8573;BME280;4324;42.012;24.872;2023-03-18T00:15:59;99453.09;;;7.72;61.99
8573;BME280;4324;42.012;24.872;2023-03-18T00:18:27;99440.03;;;7.61;62.26
8573;BME280;4324;42.012;24.872;2023-03-18T00:20:54;99458.63;;;7.69;62.55
8573;BME280;4324;42.012;24.872;2023-03-18T00:23:22;99429.19;;;7.55;62.58
8573;BME280;4324;42.012;24.872;2023-03-18T00:25:51;99427.28;;;7.57;62.37
8573;BME280;4324;42.012;24.872;2023-03-18T00:28:19;99428.38;;;7.64;62.44
8573;BME280;4324;42.012;24.872;2023-03-18T00:30:46;99435.31;;;7.74;62.59
8573;BME280;4324;42.012;24.872;2023-03-18T00:33:15;99439.91;;;7.72;63.25
8573;BME280;4324;42.012;24.872;2023-03-18T00:35:43;99433.94;;;7.70;63.08
8573;BME280;4324;42.012;24.872;2023-03-18T00:38:11;99433.38;;;7.67;63.26
8573;BME280;4324;42.012;24.872;2023-03-18T00:40:45;99427.53;;;7.63;62.91
8573;BME280;4324;42.012;24.872;2023-03-18T00:43:26;99428.94;;;7.67;63.18
8573;BME280;4324;42.012;24.872;2023-03-18T00:45:57;99425.34;;;7.68;62.63
8573;BME280;4324;42.012;24.872;2023-03-18T00:48:26;99422.72;;;7.68;62.45
8573;BME280;4324;42.012;24.872;2023-03-18T00:50:54;99416.47;;;7.69;63.45
8573;BME280;4324;42.012;24.872;2023-03-18T00:53:21;99420.06;;;7.68;63.63
8573;BME280;4324;42.012;24.872;2023-03-18T00:55:49;99393.69;;;7.59;63.88
8573;BME280;4324;42.012;24.872;2023-03-18T00:58:17;99399.25;;;7.65;63.84
8573;BME280;4324;42.012;24.872;2023-03-18T01:00:44;99407.72;;;7.69;63.94
8573;BME280;4324;42.012;24.872;2023-03-18T01:03:12;99387.88;;;7.55;63.58
8573;BME280;4324;42.012;24.872;2023-03-18T01:05:41;99402.56;;;7.67;64.34
8573;BME280;4324;42.012;24.872;2023-03-18T01:08:08;99416.72;;;7.66;64.85
8573;BME280;4324;42.012;24.872;2023-03-18T01:10:35;99408.38;;;7.51;64.20
8573;BME280;4324;42.012;24.872;2023-03-18T01:13:02;99410.16;;;7.32;64.34
8573;BME280;4324;42.012;24.872;2023-03-18T01:15:29;99415.50;;;7.11;64.54
8573;BME280;4324;42.012;24.872;2023-03-18T01:17:56;99415.75;;;6.98;65.17
8573;BME280;4324;42.012;24.872;2023-03-18T01:20:23;99408.06;;;6.85;65.83
8573;BME280;4324;42.012;24.872;2023-03-18T01:22:51;99403.78;;;6.84;66.60
8573;BME280;4324;42.012;24.872;2023-03-18T01:25:18;99414.44;;;6.83;66.45
8573;BME280;4324;42.012;24.872;2023-03-18T01:27:46;99412.91;;;6.80;66.23
8573;BME280;4324;42.012;24.872;2023-03-18T01:30:13;99408.97;;;6.74;66.43
8573;BME280;4324;42.012;24.872;2023-03-18T01:32:40;99411.19;;;6.69;66.90
8573;BME280;4324;42.012;24.872;2023-03-18T01:35:09;99409.53;;;6.68;67.28
8573;BME280;4324;42.012;24.872;2023-03-18T01:37:37;99393.56;;;6.60;67.17
8573;BME280;4324;42.012;24.872;2023-03-18T01:40:07;99405.91;;;6.69;67.61
8573;BME280;4324;42.012;24.872;2023-03-18T01:42:35;99396.44;;;6.57;67.68
8573;BME280;4324;42.012;24.872;2023-03-18T01:45:13;99402.28;;;6.61;67.25
8573;BME280;4324;42.012;24.872;2023-03-18T01:47:42;99392.84;;;6.58;67.10
8573;BME280;4324;42.012;24.872;2023-03-18T01:50:16;99386.50;;;6.61;67.38
8573;BME280;4324;42.012;24.872;2023-03-18T01:52:45;99383.97;;;6.59;67.62
8573;BME280;4324;42.012;24.872;2023-03-18T01:55:17;99388.72;;;6.65;67.93
8573;BME280;4324;42.012;24.872;2023-03-18T01:57:46;99396.28;;;6.79;67.96
8573;BME280;4324;42.012;24.872;2023-03-18T02:00:15;99382.81;;;6.73;68.20
8573;BME280;4324;42.012;24.872;2023-03-18T02:02:43;99381.63;;;6.87;67.92
8573;BME280;4324;42.012;24.872;2023-03-18T02:05:13;99396.03;;;6.92;67.84
8573;BME280;4324;42.012;24.872;2023-03-18T02:07:41;99388.84;;;6.94;67.67
8573;BME280;4324;42.012;24.872;2023-03-18T02:10:11;99389.41;;;6.98;67.56
8573;BME280;4324;42.012;24.872;2023-03-18T02:12:42;99401.19;;;7.03;67.72
8573;BME280;4324;42.012;24.872;2023-03-18T02:15:12;99393.72;;;6.99;67.86
8573;BME280;4324;42.012;24.872;2023-03-18T02:17:44;99395.38;;;7.00;68.12
8573;BME280;4324;42.012;24.872;2023-03-18T02:20:19;99392.06;;;6.98;68.13
8573;BME280;4324;42.012;24.872;2023-03-18T02:22:55;99385.81;;;6.99;68.00
8573;BME280;4324;42.012;24.872;2023-03-18T02:25:32;99391.66;;;7.02;67.93
8573;BME280;4324;42.012;24.872;2023-03-18T02:28:06;99389.41;;;6.98;68.32
8573;BME280;4324;42.012;24.872;2023-03-18T02:30:37;99392.41;;;6.84;67.72
8573;BME280;4324;42.012;24.872;2023-03-18T02:33:06;99393.19;;;6.74;68.27
8573;BME280;4324;42.012;24.872;2023-03-18T02:35:33;99394.00;;;6.65;68.66
8573;BME280;4324;42.012;24.872;2023-03-18T02:38:01;99399.78;;;6.59;68.86
8573;BME280;4324;42.012;24.872;2023-03-18T02:40:30;99388.09;;;6.52;69.43
8573;BME280;4324;42.012;24.872;2023-03-18T02:43:15;99385.88;;;6.47;69.60
8573;BME280;4324;42.012;24.872;2023-03-18T02:45:50;99368.25;;;6.38;69.57
8573;BME280;4324;42.012;24.872;2023-03-18T02:48:23;99399.09;;;6.57;69.71
8573;BME280;4324;42.012;24.872;2023-03-18T02:50:51;99398.44;;;6.65;69.16
8573;BME280;4324;42.012;24.872;2023-03-18T02:53:19;99399.81;;;6.69;69.60
8573;BME280;4324;42.012;24.872;2023-03-18T02:55:46;99395.38;;;6.69;69.72
8573;BME280;4324;42.012;24.872;2023-03-18T02:58:14;99396.38;;;6.68;69.77
8573;BME280;4324;42.012;24.872;2023-03-18T03:00:41;99400.13;;;6.75;69.86
8573;BME280;4324;42.012;24.872;2023-03-18T03:03:08;99407.38;;;6.83;69.90
8573;BME280;4324;42.012;24.872;2023-03-18T03:05:35;99406.00;;;6.89;70.08
8573;BME280;4324;42.012;24.872;2023-03-18T03:08:03;99402.53;;;6.88;69.62
8573;BME280;4324;42.012;24.872;2023-03-18T03:10:30;99379.66;;;6.79;69.50
8573;BME280;4324;42.012;24.872;2023-03-18T03:12:57;99409.94;;;7.04;69.22
8573;BME280;4324;42.012;24.872;2023-03-18T03:15:26;99387.22;;;7.03;69.56
8573;BME280;4324;42.012;24.872;2023-03-18T03:17:53;99403.63;;;7.16;69.91
8573;BME280;4324;42.012;24.872;2023-03-18T03:20:20;99396.25;;;7.10;69.79
8573;BME280;4324;42.012;24.872;2023-03-18T03:22:48;99404.28;;;7.18;69.80
8573;BME280;4324;42.012;24.872;2023-03-18T03:25:14;99400.16;;;7.16;70.06
8573;BME280;4324;42.012;24.872;2023-03-18T03:27:42;99411.25;;;7.19;70.09
8573;BME280;4324;42.012;24.872;2023-03-18T03:30:11;99407.66;;;7.20;69.84
8573;BME280;4324;42.012;24.872;2023-03-18T03:32:39;99411.94;;;7.21;69.72
8573;BME280;4324;42.012;24.872;2023-03-18T03:35:07;99407.38;;;7.23;69.70
8573;BME280;4324;42.012;24.872;2023-03-18T03:37:34;99404.75;;;7.23;70.14
8573;BME280;4324;42.012;24.872;2023-03-18T03:40:02;99322.84;;;6.76;70.32
8573;BME280;4324;42.012;24.872;2023-03-18T03:42:30;99400.16;;;7.25;70.51
8573;BME280;4324;42.012;24.872;2023-03-18T03:44:57;99389.47;;;7.17;70.55
8573;BME280;4324;42.012;24.872;2023-03-18T03:47:28;99399.47;;;7.23;70.56
8573;BME280;4324;42.012;24.872;2023-03-18T03:49:56;99403.06;;;7.22;71.13
8573;BME280;4324;42.012;24.872;2023-03-18T03:52:23;99403.63;;;7.16;69.94
8573;BME280;4324;42.012;24.872;2023-03-18T03:54:51;99387.47;;;6.90;70.05
8573;BME280;4324;42.012;24.872;2023-03-18T03:57:22;99328.66;;;6.40;71.09
8573;BME280;4324;42.012;24.872;2023-03-18T03:59:49;99417.06;;;6.83;71.35
8573;BME280;4324;42.012;24.872;2023-03-18T04:02:16;99404.78;;;6.62;71.39
8573;BME280;4324;42.012;24.872;2023-03-18T04:04:44;99422.19;;;6.53;71.76
8573;BME280;4324;42.012;24.872;2023-03-18T04:07:12;99414.53;;;6.29;72.25
8573;BME280;4324;42.012;24.872;2023-03-18T04:09:39;99429.88;;;6.24;72.14
8573;BME280;4324;42.012;24.872;2023-03-18T04:12:07;99369.72;;;5.78;72.07
8573;BME280;4324;42.012;24.872;2023-03-18T04:14:36;99345.00;;;5.48;72.06
8573;BME280;4324;42.012;24.872;2023-03-18T04:17:03;99416.16;;;5.89;72.31
8573;BME280;4324;42.012;24.872;2023-03-18T04:19:30;99451.41;;;5.97;73.04
8573;BME280;4324;42.012;24.872;2023-03-18T04:21:58;99431.22;;;5.98;72.86
8573;BME280;4324;42.012;24.872;2023-03-18T04:24:27;99443.16;;;6.02;73.01
8573;BME280;4324;42.012;24.872;2023-03-18T04:26:53;99430.50;;;5.96;73.51
8573;BME280;4324;42.012;24.872;2023-03-18T04:29:20;99439.69;;;6.01;73.48
8573;BME280;4324;42.012;24.872;2023-03-18T04:31:48;99435.13;;;6.03;73.14
8573;BME280;4324;42.012;24.872;2023-03-18T04:34:18;99419.28;;;5.94;73.40
8573;BME280;4324;42.012;24.872;2023-03-18T04:36:57;99430.69;;;6.04;72.77
8573;BME280;4324;42.012;24.872;2023-03-18T04:39:24;99434.03;;;6.06;72.79
8573;BME280;4324;42.012;24.872;2023-03-18T04:41:52;99432.69;;;6.12;73.59
8573;BME280;4324;42.012;24.872;2023-03-18T04:44:21;99400.13;;;5.92;73.24
8573;BME280;4324;42.012;24.872;2023-03-18T04:46:48;99437.25;;;6.10;73.54
8573;BME280;4324;42.012;24.872;2023-03-18T04:49:15;99426.41;;;6.03;73.53
8573;BME280;4324;42.012;24.872;2023-03-18T04:51:42;99436.53;;;6.07;73.68
8573;BME280;4324;42.012;24.872;2023-03-18T04:54:09;99437.25;;;6.10;73.92
8573;BME280;4324;42.012;24.872;2023-03-18T04:56:36;99437.94;;;6.12;73.55
8573;BME280;4324;42.012;24.872;2023-03-18T04:59:06;99430.19;;;6.10;73.39
8573;BME280;4324;42.012;24.872;2023-03-18T05:01:33;99409.16;;;6.10;73.50
8573;BME280;4324;42.012;24.872;2023-03-18T05:04:00;99433.94;;;6.28;73.50
8573;BME280;4324;42.012;24.872;2023-03-18T05:06:28;99403.16;;;6.19;73.88
8573;BME280;4324;42.012;24.872;2023-03-18T05:08:56;99436.25;;;6.43;74.09
8573;BME280;4324;42.012;24.872;2023-03-18T05:11:23;99429.03;;;6.45;74.06
8573;BME280;4324;42.012;24.872;2023-03-18T05:13:50;99434.75;;;6.50;73.85
8573;BME280;4324;42.012;24.872;2023-03-18T05:16:19;99435.53;;;6.62;73.92
8573;BME280;4324;42.012;24.872;2023-03-18T05:18:46;99422.50;;;6.60;73.52
8573;BME280;4324;42.012;24.872;2023-03-18T05:21:13;99426.72;;;6.72;73.31
8573;BME280;4324;42.012;24.872;2023-03-18T05:23:40;99420.91;;;6.78;73.19
8573;BME280;4324;42.012;24.872;2023-03-18T05:26:07;99419.16;;;6.89;73.14
8573;BME280;4324;42.012;24.872;2023-03-18T05:28:34;99435.31;;;7.05;73.05
8573;BME280;4324;42.012;24.872;2023-03-18T05:31:01;99428.25;;;7.06;73.08
8573;BME280;4324;42.012;24.872;2023-03-18T05:33:29;99435.22;;;7.16;73.03
8573;BME280;4324;42.012;24.872;2023-03-18T05:35:56;99443.13;;;7.16;73.23
8573;BME280;4324;42.012;24.872;2023-03-18T05:38:23;99423.00;;;7.15;72.92
8573;BME280;4324;42.012;24.872;2023-03-18T05:40:51;99449.13;;;7.38;72.50
8573;BME280;4324;42.012;24.872;2023-03-18T05:43:18;99454.13;;;7.41;72.41
8573;BME280;4324;42.012;24.872;2023-03-18T05:45:46;99430.53;;;7.30;72.61
8573;BME280;4324;42.012;24.872;2023-03-18T05:48:13;99438.59;;;7.38;72.79
8573;BME280;4324;42.012;24.872;2023-03-18T05:50:42;99440.53;;;7.36;72.62
8573;BME280;4324;42.012;24.872;2023-03-18T05:53:10;99456.38;;;7.45;72.62
8573;BME280;4324;42.012;24.872;2023-03-18T05:55:38;99445.97;;;7.44;72.01
8573;BME280;4324;42.012;24.872;2023-03-18T05:58:05;99453.31;;;7.40;71.75
8573;BME280;4324;42.012;24.872;2023-03-18T06:00:33;99449.69;;;7.32;71.45
8573;BME280;4324;42.012;24.872;2023-03-18T06:03:00;99466.63;;;7.39;71.65
8573;BME280;4324;42.012;24.872;2023-03-18T06:05:28;99458.56;;;7.40;71.53
8573;BME280;4324;42.012;24.872;2023-03-18T06:07:56;99457.75;;;7.40;71.68
8573;BME280;4324;42.012;24.872;2023-03-18T06:10:24;99447.91;;;7.42;72.07
8573;BME280;4324;42.012;24.872;2023-03-18T06:12:51;99456.22;;;7.47;72.39
8573;BME280;4324;42.012;24.872;2023-03-18T06:15:20;99448.63;;;7.54;72.02
8573;BME280;4324;42.012;24.872;2023-03-18T06:17:47;99436.81;;;7.48;71.97
8573;BME280;4324;42.012;24.872;2023-03-18T06:20:15;99440.84;;;7.52;71.76
8573;BME280;4324;42.012;24.872;2023-03-18T06:22:43;99445.84;;;7.55;72.03
8573;BME280;4324;42.012;24.872;2023-03-18T06:25:17;99449.97;;;7.48;72.23
8573;BME280;4324;42.012;24.872;2023-03-18T06:27:57;99436.50;;;7.32;72.15
8573;BME280;4324;42.012;24.872;2023-03-18T06:30:25;99423.56;;;7.19;72.39
8573;BME280;4324;42.012;24.872;2023-03-18T06:32:52;99438.84;;;7.25;72.64
8573;BME280;4324;42.012;24.872;2023-03-18T06:35:19;99429.94;;;7.16;72.56
8573;BME280;4324;42.012;24.872;2023-03-18T06:37:46;99436.34;;;7.23;72.47
8573;BME280;4324;42.012;24.872;2023-03-18T06:40:16;99433.44;;;7.26;72.59
8573;BME280;4324;42.012;24.872;2023-03-18T06:42:43;99434.59;;;7.43;72.90
8573;BME280;4324;42.012;24.872;2023-03-18T06:45:11;99427.28;;;7.57;72.70
8573;BME280;4324;42.012;24.872;2023-03-18T06:47:39;99419.50;;;7.65;73.01
8573;BME280;4324;42.012;24.872;2023-03-18T06:50:10;99431.47;;;7.88;72.99
8573;BME280;4324;42.012;24.872;2023-03-18T06:52:38;99430.75;;;7.96;72.36
8573;BME280;4324;42.012;24.872;2023-03-18T06:55:06;99432.97;;;8.00;72.03
8573;BME280;4324;42.012;24.872;2023-03-18T06:57:45;99396.22;;;7.80;71.81
8573;BME280;4324;42.012;24.872;2023-03-18T07:00:13;99403.13;;;8.00;71.72
8573;BME280;4324;42.012;24.872;2023-03-18T07:02:40;99410.91;;;7.92;71.59
8573;BME280;4324;42.012;24.872;2023-03-18T07:05:08;99436.72;;;8.08;72.88
8573;BME280;4324;42.012;24.872;2023-03-18T07:07:37;99428.56;;;8.01;72.62
8573;BME280;4324;42.012;24.872;2023-03-18T07:10:06;99434.78;;;8.10;72.75
8573;BME280;4324;42.012;24.872;2023-03-18T07:12:35;99434.50;;;8.22;72.40
8573;BME280;4324;42.012;24.872;2023-03-18T07:15:02;99435.59;;;8.30;72.31
8573;BME280;4324;42.012;24.872;2023-03-18T07:17:29;99420.19;;;8.35;72.62
8573;BME280;4324;42.012;24.872;2023-03-18T07:19:56;99415.06;;;8.43;72.43
8573;BME280;4324;42.012;24.872;2023-03-18T07:22:24;99426.13;;;8.56;72.34
8573;BME280;4324;42.012;24.872;2023-03-18T07:24:51;99430.56;;;8.65;71.43
8573;BME280;4324;42.012;24.872;2023-03-18T07:27:18;99410.81;;;8.69;70.60
8573;BME280;4324;42.012;24.872;2023-03-18T07:29:46;99410.22;;;8.85;70.14
8573;BME280;4324;42.012;24.872;2023-03-18T07:32:13;99417.53;;;9.01;69.68
8573;BME280;4324;42.012;24.872;2023-03-18T07:34:40;99433.72;;;9.16;69.57
8573;BME280;4324;42.012;24.872;2023-03-18T07:37:07;99428.66;;;9.23;69.60
8573;BME280;4324;42.012;24.872;2023-03-18T07:39:34;99437.97;;;9.27;68.54
8573;BME280;4324;42.012;24.872;2023-03-18T07:42:01;99397.31;;;9.10;67.94
8573;BME280;4324;42.012;24.872;2023-03-18T07:44:31;99433.19;;;9.40;67.93
8573;BME280;4324;42.012;24.872;2023-03-18T07:46:59;99413.47;;;9.52;68.63
8573;BME280;4324;42.012;24.872;2023-03-18T07:49:38;99421.50;;;9.78;67.86
8573;BME280;4324;42.012;24.872;2023-03-18T07:52:11;99328.16;;;9.42;67.41
8573;BME280;4324;42.012;24.872;2023-03-18T07:54:38;99415.41;;;10.31;66.95
8573;BME280;4324;42.012;24.872;2023-03-18T07:57:11;99415.19;;;10.51;66.17
8573;BME280;4324;42.012;24.872;2023-03-18T07:59:39;99360.16;;;10.36;66.11
8573;BME280;4324;42.012;24.872;2023-03-18T08:02:12;99408.94;;;10.86;66.40
8573;BME280;4324;42.012;24.872;2023-03-18T08:04:40;99412.72;;;11.09;66.58
8573;BME280;4324;42.012;24.872;2023-03-18T08:07:08;99410.44;;;11.23;66.13
8573;BME280;4324;42.012;24.872;2023-03-18T08:09:35;99411.31;;;11.39;65.93
8573;BME280;4324;42.012;24.872;2023-03-18T08:12:04;99404.50;;;11.37;65.87
8573;BME280;4324;42.012;24.872;2023-03-18T08:14:31;99419.47;;;11.46;66.51
8573;BME280;4324;42.012;24.872;2023-03-18T08:16:57;99413.97;;;11.31;65.90
8573;BME280;4324;42.012;24.872;2023-03-18T08:19:26;99431.88;;;11.03;66.41
8573;BME280;4324;42.012;24.872;2023-03-18T08:21:53;99440.63;;;10.70;65.74
8573;BME280;4324;42.012;24.872;2023-03-18T08:24:20;99376.41;;;9.98;65.13
8573;BME280;4324;42.012;24.872;2023-03-18T08:26:47;99441.31;;;10.10;65.28
8573;BME280;4324;42.012;24.872;2023-03-18T08:29:13;99453.50;;;10.03;65.52
8573;BME280;4324;42.012;24.872;2023-03-18T08:31:40;99440.56;;;9.82;65.06
8573;BME280;4324;42.012;24.872;2023-03-18T08:34:07;99449.09;;;9.76;65.74
8573;BME280;4324;42.012;24.872;2023-03-18T08:36:36;99451.50;;;9.69;66.34
8573;BME280;4324;42.012;24.872;2023-03-18T08:39:04;99452.34;;;9.69;65.79
8573;BME280;4324;42.012;24.872;2023-03-18T08:41:30;99456.94;;;9.67;65.70
8573;BME280;4324;42.012;24.872;2023-03-18T08:43:58;99451.97;;;9.64;65.90
8573;BME280;4324;42.012;24.872;2023-03-18T08:46:25;99455.97;;;9.68;66.47
8573;BME280;4324;42.012;24.872;2023-03-18T08:48:52;99441.00;;;9.59;67.07
8573;BME280;4324;42.012;24.872;2023-03-18T08:51:19;99468.13;;;9.61;66.73
8573;BME280;4324;42.012;24.872;2023-03-18T08:53:49;99457.50;;;9.43;67.03
8573;BME280;4324;42.012;24.872;2023-03-18T08:56:16;99446.44;;;9.30;65.59
8573;BME280;4324;42.012;24.872;2023-03-18T08:58:42;99470.88;;;9.42;65.21
8573;BME280;4324;42.012;24.872;2023-03-18T09:01:13;99468.66;;;9.37;65.14
8573;BME280;4324;42.012;24.872;2023-03-18T09:03:41;99472.66;;;9.41;65.16
8573;BME280;4324;42.012;24.872;2023-03-18T09:06:09;99391.78;;;9.03;65.33
8573;BME280;4324;42.012;24.872;2023-03-18T09:08:36;99481.91;;;9.55;65.32
8573;BME280;4324;42.012;24.872;2023-03-18T09:11:05;99461.06;;;9.52;64.71
8573;BME280;4324;42.012;24.872;2023-03-18T09:13:33;99467.59;;;9.58;64.57
8573;BME280;4324;42.012;24.872;2023-03-18T09:16:00;99486.88;;;9.68;64.39
8573;BME280;4324;42.012;24.872;2023-03-18T09:18:27;99462.84;;;9.61;65.20
8573;BME280;4324;42.012;24.872;2023-03-18T09:20:54;99400.84;;;9.28;65.38
8573;BME280;4324;42.012;24.872;2023-03-18T09:23:21;99491.00;;;9.70;65.75
8573;BME280;4324;42.012;24.872;2023-03-18T09:25:50;99488.03;;;9.56;66.07
8573;BME280;4324;42.012;24.872;2023-03-18T09:28:20;99496.97;;;9.55;65.91
8573;BME280;4324;42.012;24.872;2023-03-18T09:30:48;99494.88;;;9.49;65.52
8573;BME280;4324;42.012;24.872;2023-03-18T09:33:15;99483.44;;;9.30;65.47
8573;BME280;4324;42.012;24.872;2023-03-18T09:35:42;99496.63;;;9.30;64.94
8573;BME280;4324;42.012;24.872;2023-03-18T09:38:12;99485.44;;;9.18;65.23
8573;BME280;4324;42.012;24.872;2023-03-18T09:40:50;99483.50;;;9.20;65.62
8573;BME280;4324;42.012;24.872;2023-03-18T09:43:35;99493.03;;;9.31;65.92
8573;BME280;4324;42.012;24.872;2023-03-18T09:46:10;99514.28;;;9.39;66.17
8573;BME280;4324;42.012;24.872;2023-03-18T09:48:55;99518.13;;;9.45;65.89
8573;BME280;4324;42.012;24.872;2023-03-18T09:51:37;99516.19;;;9.47;65.57
8573;BME280;4324;42.012;24.872;2023-03-18T09:54:10;99520.13;;;9.43;65.92
8573;BME280;4324;42.012;24.872;2023-03-18T09:56:38;99515.41;;;9.37;66.38
8573;BME280;4324;42.012;24.872;2023-03-18T09:59:15;99525.31;;;9.35;66.37
8573;BME280;4324;42.012;24.872;2023-03-18T10:01:45;99529.63;;;9.26;66.69
8573;BME280;4324;42.012;24.872;2023-03-18T10:04:16;99518.41;;;9.14;67.11
8573;BME280;4324;42.012;24.872;2023-03-18T10:06:47;99513.22;;;9.23;67.06
8573;BME280;4324;42.012;24.872;2023-03-18T10:09:21;99524.84;;;9.39;67.21
8573;BME280;4324;42.012;24.872;2023-03-18T10:11:52;99524.09;;;9.57;67.57
8573;BME280;4324;42.012;24.872;2023-03-18T10:14:32;99476.00;;;9.43;67.85
8573;BME280;4324;42.012;24.872;2023-03-18T10:17:11;99484.97;;;9.60;68.06
8573;BME280;4324;42.012;24.872;2023-03-18T10:19:45;99467.28;;;9.61;68.10
8573;BME280;4324;42.012;24.872;2023-03-18T10:22:28;99508.44;;;9.91;67.70
8573;BME280;4324;42.012;24.872;2023-03-18T10:25:03;99515.25;;;10.11;67.26
8573;BME280;4324;42.012;24.872;2023-03-18T10:27:40;99526.94;;;10.36;67.13
8573;BME280;4324;42.012;24.872;2023-03-18T10:30:26;99515.88;;;10.41;67.33
8573;BME280;4324;42.012;24.872;2023-03-18T10:32:59;99437.97;;;10.08;67.32
8573;BME280;4324;42.012;24.872;2023-03-18T10:35:34;99529.75;;;10.79;67.56
8573;BME280;4324;42.012;24.872;2023-03-18T10:38:10;99516.16;;;11.00;66.96
8573;BME280;4324;42.012;24.872;2023-03-18T10:40:43;99513.50;;;11.26;66.52
8573;BME280;4324;42.012;24.872;2023-03-18T10:43:15;99511.13;;;11.49;66.29
8573;BME280;4324;42.012;24.872;2023-03-18T10:45:47;99513.34;;;11.70;65.87
8573;BME280;4324;42.012;24.872;2023-03-18T10:48:19;99502.81;;;11.86;66.09
8573;BME280;4324;42.012;24.872;2023-03-18T10:51:02;99502.38;;;12.15;65.84
8573;BME280;4324;42.012;24.872;2023-03-18T10:53:35;99504.38;;;12.46;65.55
8573;BME280;4324;42.012;24.872;2023-03-18T10:56:07;99483.00;;;12.55;65.01
8573;BME280;4324;42.012;24.872;2023-03-18T10:58:36;99504.22;;;12.88;65.64
8573;BME280;4324;42.012;24.872;2023-03-18T11:01:05;99500.88;;;13.02;65.85
8573;BME280;4324;42.012;24.872;2023-03-18T11:03:35;99491.56;;;13.06;66.33
8573;BME280;4324;42.012;24.872;2023-03-18T11:06:06;99484.59;;;13.05;65.80
8573;BME280;4324;42.012;24.872;2023-03-18T11:08:41;99430.81;;;12.79;65.74
8573;BME280;4324;42.012;24.872;2023-03-18T11:11:20;99471.94;;;13.07;65.77
8573;BME280;4324;42.012;24.872;2023-03-18T11:13:52;99466.63;;;13.07;65.85
8573;BME280;4324;42.012;24.872;2023-03-18T11:16:28;99454.56;;;12.80;65.67
8573;BME280;4324;42.012;24.872;2023-03-18T11:18:56;99454.72;;;12.79;64.72
8573;BME280;4324;42.012;24.872;2023-03-18T11:21:25;99474.97;;;12.96;64.01
8573;BME280;4324;42.012;24.872;2023-03-18T11:24:01;99449.91;;;12.74;63.18
8573;BME280;4324;42.012;24.872;2023-03-18T11:26:51;99446.44;;;12.49;63.73
8573;BME280;4324;42.012;24.872;2023-03-18T11:29:26;99481.34;;;12.54;64.29
8573;BME280;4324;42.012;24.872;2023-03-18T11:31:56;99481.31;;;12.38;63.18
8573;BME280;4324;42.012;24.872;2023-03-18T11:34:34;99454.78;;;12.05;62.99
8573;BME280;4324;42.012;24.872;2023-03-18T11:37:10;99403.56;;;11.46;63.06
8573;BME280;4324;42.012;24.872;2023-03-18T11:39:39;99487.03;;;11.76;63.64
8573;BME280;4324;42.012;24.872;2023-03-18T11:42:16;99496.09;;;11.66;63.38
8573;BME280;4324;42.012;24.872;2023-03-18T11:44:45;99489.06;;;11.48;62.49
8573;BME280;4324;42.012;24.872;2023-03-18T11:47:18;99451.81;;;11.15;62.06
8573;BME280;4324;42.012;24.872;2023-03-18T11:49:48;99474.72;;;11.25;62.18
8573;BME280;4324;42.012;24.872;2023-03-18T11:52:27;99473.41;;;11.29;62.65
8573;BME280;4324;42.012;24.872;2023-03-18T11:55:16;99479.16;;;11.50;63.58
8573;BME280;4324;42.012;24.872;2023-03-18T11:58:19;99483.84;;;11.65;62.92
8573;BME280;4324;42.012;24.872;2023-03-18T12:00:52;99397.88;;;11.41;61.08
8573;BME280;4324;42.012;24.872;2023-03-18T12:03:34;99430.84;;;11.97;62.28
8573;BME280;4324;42.012;24.872;2023-03-18T12:06:16;99457.56;;;12.53;63.36
8573;BME280;4324;42.012;24.872;2023-03-18T12:08:52;99444.59;;;12.74;62.96
8573;BME280;4324;42.012;24.872;2023-03-18T12:11:34;99467.97;;;13.03;62.14
8573;BME280;4324;42.012;24.872;2023-03-18T12:14:14;99467.25;;;13.18;61.66
8573;BME280;4324;42.012;24.872;2023-03-18T12:16:52;99465.47;;;13.10;60.87
8573;BME280;4324;42.012;24.872;2023-03-18T12:19:50;99446.06;;;12.85;61.36
8573;BME280;4324;42.012;24.872;2023-03-18T12:22:31;99468.34;;;12.84;60.90
8573;BME280;4324;42.012;24.872;2023-03-18T12:25:11;99424.88;;;12.52;60.58
8573;BME280;4324;42.012;24.872;2023-03-18T12:27:48;99466.56;;;12.68;59.84
8573;BME280;4324;42.012;24.872;2023-03-18T12:30:38;99470.72;;;12.54;59.33
8573;BME280;4324;42.012;24.872;2023-03-18T12:33:15;99436.88;;;12.24;59.90
8573;BME280;4324;42.012;24.872;2023-03-18T12:35:58;99461.09;;;12.29;60.63
8573;BME280;4324;42.012;24.872;2023-03-18T12:38:50;99447.47;;;12.32;60.57
8573;BME280;4324;42.012;24.872;2023-03-18T12:41:29;99454.75;;;12.38;60.07
8573;BME280;4324;42.012;24.872;2023-03-18T12:44:14;99450.63;;;12.19;59.54
8573;BME280;4324;42.012;24.872;2023-03-18T12:46:51;99446.97;;;12.04;59.84
8573;BME280;4324;42.012;24.872;2023-03-18T12:49:23;99449.09;;;11.84;59.48
8573;BME280;4324;42.012;24.872;2023-03-18T12:51:56;99447.69;;;11.63;59.49
8573;BME280;4324;42.012;24.872;2023-03-18T12:54:29;99438.84;;;11.47;59.28
8573;BME280;4324;42.012;24.872;2023-03-18T12:57:02;99421.53;;;11.26;59.32
8573;BME280;4324;42.012;24.872;2023-03-18T12:59:36;99434.28;;;11.23;58.61
8573;BME280;4324;42.012;24.872;2023-03-18T13:02:20;99434.94;;;11.17;60.40
8573;BME280;4324;42.012;24.872;2023-03-18T13:04:59;99423.34;;;11.18;61.73
8573;BME280;4324;42.012;24.872;2023-03-18T13:07:37;99411.72;;;11.10;60.71
8573;BME280;4324;42.012;24.872;2023-03-18T13:10:16;99425.97;;;11.09;60.18
8573;BME280;4324;42.012;24.872;2023-03-18T13:12:46;99434.88;;;11.08;59.52
8573;BME280;4324;42.012;24.872;2023-03-18T13:15:24;99428.75;;;11.08;59.91
8573;BME280;4324;42.012;24.872;2023-03-18T13:17:54;99416.72;;;11.22;59.55
8573;BME280;4324;42.012;24.872;2023-03-18T13:20:24;99424.72;;;11.38;59.51
8573;BME280;4324;42.012;24.872;2023-03-18T13:23:13;99420.44;;;11.45;59.50
8573;BME280;4324;42.012;24.872;2023-03-18T13:25:51;99409.19;;;11.51;58.57
8573;BME280;4324;42.012;24.872;2023-03-18T13:28:32;99407.56;;;11.58;58.69
8573;BME280;4324;42.012;24.872;2023-03-18T13:31:13;99409.22;;;11.59;59.03
8573;BME280;4324;42.012;24.872;2023-03-18T13:33:54;99364.03;;;11.19;59.24
8573;BME280;4324;42.012;24.872;2023-03-18T13:36:55;99400.34;;;11.26;59.56
8573;BME280;4324;42.012;24.872;2023-03-18T13:39:37;99395.13;;;11.08;59.11